• Join FlightAware (Why Join?)
  • Login
  • US Flag 
03:01AM EDT


 

Airport Tracker/Info


-or-


 

Live Flight TrackerFlight Track Log ✈ AWE1092 ✈ 25-Apr-2013 ✈ KPHL - KRDU

Flight Track Log - Related Links

Times and Time Zones

All times are in EDT time to prevent confusion due to time zone crossing. See the AWE1092 flight status page for this flight to view local times or setup timezone preferences in your user account.

Time Position Orientation Groundspeed Altitude Reporting Facility
EDT Latitude Longitude Course Direction KTS MPH feet Rate Location/Type
09:51AM 39.8667 -75.2667 185° South 163 188 700  Level Philadelphia TRACON
09:52AM 39.8389 -75.2908 214° Southwest 191 220 1,600 1,500 Climbing FAA TRACON SMA TRACON (SMA)
09:52AM 39.8250 -75.3028 213° Southwest 199 229 2,100 2,100 Climbing FAA TRACON SMA TRACON (SMA)
09:53AM 39.8050 -75.3214 216° Southwest 217 250 3,000 2,400 Climbing FAA TRACON SMA TRACON (SMA)
09:53AM 39.7892 -75.3361 216° Southwest 240 276 3,700 2,400 Climbing FAA TRACON SMA TRACON (SMA)
09:53AM 39.7697 -75.3533 214° Southwest 265 305 4,600 3,600 Climbing FAA TRACON SMA TRACON (SMA)
09:54AM 39.6046 -75.3000 180° South  Level FlightAware Approximate
09:54AM 39.7442 -75.3736 211° Southwest 276 318 6,100  Level FAA TRACON SMA TRACON (SMA)
09:54AM 39.7222 -75.3803 193° South 263 303 7,700 3,900 Climbing FAA TRACON SMA TRACON (SMA)
09:54AM 39.6994 -75.3747 169° South 287 330 8,700 3,000 Climbing FAA TRACON SMA TRACON (SMA)
09:55AM 39.5132 -75.3140 189° South  Level FlightAware Approximate
09:55AM 39.6739 -75.3494 143° Southeast 302 348 9,700  Level FAA TRACON SMA TRACON (SMA)
09:55AM 39.6542 -75.3256 137° Southeast 314 361 10,500 1,800 Climbing FAA TRACON SMA TRACON (SMA)
09:55AM 39.6311 -75.3067 148° Southeast 332 382 10,900 1,500 Climbing FAA TRACON SMA TRACON (SMA)
09:56AM 39.4229 -75.3345 185° South  Level FlightAware Approximate
09:56AM 39.5961 -75.3106 185° South 331 381 11,500  Level FAA TRACON SMA TRACON (SMA)
09:56AM 39.5686 -75.3153 188° South 327 376 12,600 3,600 Climbing FAA TRACON SMA TRACON (SMA)
09:56AM 39.5428 -75.3194 187° South 326 375 13,900 4,320 Climbing FAA TRACON SMA TRACON (SMA)
09:57AM 39.3311 -75.3447 185° South  Level FlightAware Approximate
09:57AM 39.5081 -75.3264 189° South 306 352 15,500  Level FAA TRACON SMA TRACON (SMA)
09:57AM 39.4825 -75.3314 189° South 301 346 16,000 720 Climbing FAA TRACON SMA TRACON (SMA)
09:57AM 39.4572 -75.3358 188° South 300 345 16,000  Level FAA TRACON SMA TRACON (SMA)
09:58AM 39.4261 -75.3417 188° South 298 343 16,000 120 Level FAA TRACON SMA TRACON (SMA)
09:58AM 39.4000 -75.3461 187° South 300 345 16,100 1,200 Climbing FAA TRACON SMA TRACON (SMA)
09:58AM 39.3739 -75.3508 188° South 305 351 16,800 1,320 Climbing FAA TRACON SMA TRACON (SMA)
09:59AM 39.3417 -75.3567 188° South 306 352 17,000 180 Climbing FAA TRACON SMA TRACON (SMA)
09:59AM 39.2897 -75.3650 187° South 305 351 17,000  Level FAA TRACON SMA TRACON (SMA)
10:00AM 39.2594 -75.3706 188° South 307 353 17,000  Level FAA TRACON SMA TRACON (SMA)
10:00AM 39.2439 -75.3731 187° South 308 354 17,000 1,800 Level FAA TRACON SMA TRACON (SMA)
10:02AM 39.0508 -75.4044 187° South 314 361 21,300 2,040 Climbing Washington Center
10:03AM 38.9547 -75.4208 188° South 331 381 23,200 1,800 Climbing Washington Center
10:04AM 38.8589 -75.4369 187° South 350 403 24,900 1,380 Climbing Washington Center
10:05AM 38.7547 -75.4506 186° South 361 415 26,000 540 Climbing Washington Center
10:06AM 38.6525 -75.4667 187° South 372 428 26,000  Level Washington Center
10:07AM 38.5506 -75.4775 185° South 372 428 26,000  Level Washington Center
10:08AM 38.4483 -75.5017 190° South 372 428 26,000  Level Washington Center
10:09AM 38.3483 -75.5044 181° South 372 428 26,000  Level Washington Center
10:10AM 38.2481 -75.4911 174° South 366 421 26,000  Level Washington Center
10:11AM 38.1500 -75.4836 177° South 366 421 26,000  Level Washington Center
10:12AM 38.0583 -75.5283 201° Southwest 352 405 26,000  Level Washington Center
10:13AM 37.9833 -75.6075 220° Southwest 346 398 26,000  Level Washington Center
10:14AM 37.9125 -75.6944 224° Southwest 351 404 26,000  Level Washington Center
10:15AM 37.8456 -75.7786 225° Southwest 351 404 26,000  Level Washington Center
10:16AM 37.7744 -75.8650 224° Southwest 351 404 26,000  Level Washington Center
10:17AM 37.7075 -75.9542 227° Southwest 346 398 26,000 -480 Level Washington Center
10:18AM 37.6383 -76.0378 224° Southwest 346 398 25,100 -1,020 Descending Washington Center
10:19AM 37.5733 -76.1183 224° Southwest 346 398 24,000 -600 Descending Washington Center
10:20AM 37.5022 -76.1967 221° Southwest 351 404 24,000  Level Washington Center
10:21AM 37.4328 -76.2822 224° Southwest 351 404 24,000  Level Washington Center
10:22AM 37.3656 -76.3653 224° Southwest 346 398 24,000  Level Washington Center
10:23AM 37.2983 -76.4481 224° Southwest 346 398 24,000  Level Washington Center
10:24AM 37.2331 -76.5361 227° Southwest 346 398 24,000  Level Washington Center
10:25AM 37.1739 -76.6292 231° Southwest 351 404 24,000  Level Washington Center
10:26AM 37.1147 -76.7197 231° Southwest 346 398 24,000 -60 Level Washington Center
10:27AM 37.0575 -76.8125 232° Southwest 341 392 23,900 -540 Descending Washington Center
10:28AM 36.9981 -76.9053 231° Southwest 341 392 23,000 -900 Descending Washington Center
10:29AM 36.9386 -76.9953 230° Southwest 341 392 22,200 -840 Descending Washington Center
10:30AM 36.8811 -77.0850 231° Southwest 347 399 21,400 -840 Descending Washington Center
10:31AM 36.8217 -77.1747 230° Southwest 347 399 20,600 -720 Descending Washington Center
10:32AM 36.7661 -77.2617 231° Southwest 342 394 20,000 -300 Descending Washington Center
10:33AM 36.7086 -77.3486 230° Southwest 342 394 20,000  Level Washington Center
10:34AM 36.6531 -77.4378 232° Southwest 342 394 20,000 -300 Level Washington Center
10:35AM 36.5931 -77.5269 230° Southwest 342 394 19,400 -1,200 Descending Washington Center
10:36AM 36.5375 -77.6136 231° Southwest 337 388 17,700 -1,740 Descending Washington Center
10:37AM 36.4839 -77.6947 231° Southwest 331 381 16,000 -900 Descending Washington Center
10:38AM 36.4283 -77.7758 230° Southwest 317 365 16,000 -360 Level Washington Center
10:39AM 36.3897 -77.8367 232° Southwest 310 357 15,400 -840 Descending Washington Center
10:39AM 36.3808 -77.8519 234° Southwest 317 365 15,200 -1,200 Descending Washington Center
10:40AM 36.3272 -77.9331 231° Southwest 317 365 13,900 -1,380 Descending Washington Center
10:41AM 36.2733 -78.0139 230° Southwest 317 365 12,500 -960 Descending Washington Center
10:42AM 36.2153 -78.0994 230° Southwest 302 348 12,000 -300 Descending Washington Center
10:43AM 36.1614 -78.1828 231° Southwest 306 352 12,000 -300 Level Washington Center
10:44AM 36.1197 -78.2764 241° Southwest 317 365 11,400 -900 Descending Washington Center
10:45AM 36.0803 -78.3572 239° Southwest 293 337 10,200 -1,440 Descending Washington Center
10:46AM 36.0431 -78.4306 238° Southwest 253 291 8,700 -1,140 Descending Washington Center
10:47AM 36.0081 -78.5039 239° Southwest 246 283 8,000 -360 Descending Washington Center
10:48AM 35.9606 -78.5636 226° Southwest 249 287 8,000  Level Washington Center
10:49AM 35.9156 -78.6106 220° Southwest 221 254 8,000  Level Washington Center
10:50AM 35.8728 -78.6553 220° Southwest 197 227 8,000 -480 Level Washington Center
10:51AM 35.8258 -78.6969 216° Southwest 205 236 7,100 -960 Descending Washington Center
10:52AM 35.7889 -78.7467 228° Southwest 188 216 6,100 -1,260 Descending Washington Center
10:53AM 35.7522 -78.7914 225° Southwest 187 215 4,600 -1,440 Descending Washington Center
10:54AM 35.7319 -78.8519 248° West 197 227 3,200 -1,380 Descending Washington Center